sensor_id;sensor_type;location;lat;lon;timestamp;pressure;altitude;pressure_sealevel;temperature;humidity
21781;BME280;52576;53.614;9.894;2022-10-31T00:00:41;101396.03;;;12.20;100.00
21781;BME280;52576;53.614;9.894;2022-10-31T00:01:45;101392.09;;;12.23;100.00
21781;BME280;52576;53.614;9.894;2022-10-31T00:02:47;101390.91;;;12.25;100.00
21781;BME280;52576;53.614;9.894;2022-10-31T00:03:51;101399.38;;;12.29;100.00
21781;BME280;52576;53.614;9.894;2022-10-31T00:04:53;101399.16;;;12.30;100.00
21781;BME280;52576;53.614;9.894;2022-10-31T00:05:56;101395.88;;;12.35;100.00
21781;BME280;52576;53.614;9.894;2022-10-31T00:06:58;101401.88;;;12.37;100.00
21781;BME280;52576;53.614;9.894;2022-10-31T00:08:01;101401.47;;;12.40;100.00
21781;BME280;52576;53.614;9.894;2022-10-31T00:09:04;101395.69;;;12.43;100.00
21781;BME280;52576;53.614;9.894;2022-10-31T00:10:08;101402.34;;;12.47;100.00
21781;BME280;52576;53.614;9.894;2022-10-31T00:11:12;101409.97;;;12.50;100.00
21781;BME280;52576;53.614;9.894;2022-10-31T00:12:15;101404.00;;;12.54;100.00
21781;BME280;52576;53.614;9.894;2022-10-31T00:13:17;101401.94;;;12.56;100.00
21781;BME280;52576;53.614;9.894;2022-10-31T00:14:20;101403.41;;;12.59;100.00
21781;BME280;52576;53.614;9.894;2022-10-31T00:15:24;101406.09;;;12.59;100.00
21781;BME280;52576;53.614;9.894;2022-10-31T00:16:27;101405.91;;;12.67;100.00
21781;BME280;52576;53.614;9.894;2022-10-31T00:17:30;101406.53;;;12.69;100.00
21781;BME280;52576;53.614;9.894;2022-10-31T00:18:33;101406.13;;;12.72;100.00
21781;BME280;52576;53.614;9.894;2022-10-31T00:19:36;101407.38;;;12.76;100.00
21781;BME280;52576;53.614;9.894;2022-10-31T00:20:39;101394.16;;;12.75;100.00
21781;BME280;52576;53.614;9.894;2022-10-31T00:21:42;101409.25;;;12.82;100.00
21781;BME280;52576;53.614;9.894;2022-10-31T00:22:44;101406.16;;;12.85;100.00
21781;BME280;52576;53.614;9.894;2022-10-31T00:23:47;101403.28;;;12.87;100.00
21781;BME280;52576;53.614;9.894;2022-10-31T00:24:50;101409.47;;;12.87;100.00
21781;BME280;52576;53.614;9.894;2022-10-31T00:25:53;101407.44;;;12.89;100.00
21781;BME280;52576;53.614;9.894;2022-10-31T00:26:56;101409.69;;;12.92;100.00
21781;BME280;52576;53.614;9.894;2022-10-31T00:27:59;101407.84;;;12.93;100.00
21781;BME280;52576;53.614;9.894;2022-10-31T00:29:03;101410.31;;;12.94;100.00
21781;BME280;52576;53.614;9.894;2022-10-31T00:30:07;101405.56;;;12.96;100.00
21781;BME280;52576;53.614;9.894;2022-10-31T00:31:11;101408.44;;;12.95;100.00
21781;BME280;52576;53.614;9.894;2022-10-31T00:32:14;101411.34;;;13.00;100.00
21781;BME280;52576;53.614;9.894;2022-10-31T00:33:16;101414.69;;;13.02;100.00
21781;BME280;52576;53.614;9.894;2022-10-31T00:34:19;101409.13;;;13.03;100.00
21781;BME280;52576;53.614;9.894;2022-10-31T00:35:22;101413.28;;;13.06;100.00
21781;BME280;52576;53.614;9.894;2022-10-31T00:36:25;101408.91;;;13.05;100.00
21781;BME280;52576;53.614;9.894;2022-10-31T00:37:27;101414.72;;;13.08;100.00
21781;BME280;52576;53.614;9.894;2022-10-31T00:38:30;101409.13;;;13.10;100.00
21781;BME280;52576;53.614;9.894;2022-10-31T00:39:32;101409.13;;;13.10;100.00
21781;BME280;52576;53.614;9.894;2022-10-31T00:40:35;101404.38;;;13.12;100.00
21781;BME280;52576;53.614;9.894;2022-10-31T00:41:37;101403.38;;;13.13;100.00
21781;BME280;52576;53.614;9.894;2022-10-31T00:42:47;101398.81;;;13.13;100.00
21781;BME280;52576;53.614;9.894;2022-10-31T00:43:49;101394.28;;;13.14;100.00
21781;BME280;52576;53.614;9.894;2022-10-31T00:44:53;101399.84;;;13.12;100.00
21781;BME280;52576;53.614;9.894;2022-10-31T00:45:55;101400.88;;;13.11;100.00
21781;BME280;52576;53.614;9.894;2022-10-31T00:46:59;101403.53;;;13.11;100.00
21781;BME280;52576;53.614;9.894;2022-10-31T00:48:01;101400.06;;;13.11;100.00
21781;BME280;52576;53.614;9.894;2022-10-31T00:49:04;101407.47;;;13.09;100.00
21781;BME280;52576;53.614;9.894;2022-10-31T00:50:08;101403.53;;;13.05;100.00
21781;BME280;52576;53.614;9.894;2022-10-31T00:51:12;101412.22;;;13.07;100.00
21781;BME280;52576;53.614;9.894;2022-10-31T00:52:15;101405.22;;;13.06;100.00
21781;BME280;52576;53.614;9.894;2022-10-31T00:53:18;101407.06;;;13.05;100.00
21781;BME280;52576;53.614;9.894;2022-10-31T00:54:21;101412.63;;;13.04;100.00
21781;BME280;52576;53.614;9.894;2022-10-31T00:55:24;101413.47;;;13.04;100.00
21781;BME280;52576;53.614;9.894;2022-10-31T00:56:27;101410.78;;;13.04;100.00
21781;BME280;52576;53.614;9.894;2022-10-31T00:57:32;101411.81;;;13.03;100.00
21781;BME280;52576;53.614;9.894;2022-10-31T00:58:35;101408.31;;;13.03;100.00
21781;BME280;52576;53.614;9.894;2022-10-31T00:59:38;101412.84;;;13.02;100.00
21781;BME280;52576;53.614;9.894;2022-10-31T01:00:40;101408.31;;;13.03;100.00
21781;BME280;52576;53.614;9.894;2022-10-31T01:01:50;101408.50;;;13.01;100.00
21781;BME280;52576;53.614;9.894;2022-10-31T01:02:52;101410.34;;;13.01;100.00
21781;BME280;52576;53.614;9.894;2022-10-31T01:03:55;101420.91;;;13.02;100.00
21781;BME280;52576;53.614;9.894;2022-10-31T01:04:57;101416.53;;;13.01;100.00
21781;BME280;52576;53.614;9.894;2022-10-31T01:06:02;101417.38;;;13.02;100.00
21781;BME280;52576;53.614;9.894;2022-10-31T01:07:06;101412.00;;;13.02;100.00
21781;BME280;52576;53.614;9.894;2022-10-31T01:08:10;101416.53;;;13.01;100.00
21781;BME280;52576;53.614;9.894;2022-10-31T01:09:12;101423.75;;;13.01;100.00
21781;BME280;52576;53.614;9.894;2022-10-31T01:10:15;101422.94;;;13.00;100.00
21781;BME280;52576;53.614;9.894;2022-10-31T01:11:21;101434.72;;;12.99;100.00
21781;BME280;52576;53.614;9.894;2022-10-31T01:12:24;101420.03;;;12.95;100.00
21781;BME280;52576;53.614;9.894;2022-10-31T01:13:26;101433.88;;;12.99;100.00
21781;BME280;52576;53.614;9.894;2022-10-31T01:14:31;101439.25;;;12.99;100.00
21781;BME280;52576;53.614;9.894;2022-10-31T01:15:33;101442.13;;;12.97;100.00
21781;BME280;52576;53.614;9.894;2022-10-31T01:16:36;101436.75;;;12.97;100.00
21781;BME280;52576;53.614;9.894;2022-10-31T01:17:39;101438.63;;;12.97;100.00
21781;BME280;52576;53.614;9.894;2022-10-31T01:18:45;101441.06;;;12.92;100.00
21781;BME280;52576;53.614;9.894;2022-10-31T01:19:48;101446.66;;;12.97;100.00
21781;BME280;52576;53.614;9.894;2022-10-31T01:21:00;101445.81;;;12.96;100.00
21781;BME280;52576;53.614;9.894;2022-10-31T01:22:04;101445.03;;;12.96;100.00
21781;BME280;52576;53.614;9.894;2022-10-31T01:23:06;101448.34;;;12.98;100.00
21781;BME280;52576;53.614;9.894;2022-10-31T01:24:09;101442.13;;;12.97;100.00
21781;BME280;52576;53.614;9.894;2022-10-31T01:25:12;101444.63;;;12.99;100.00
21781;BME280;52576;53.614;9.894;2022-10-31T01:26:17;101448.13;;;12.99;100.00
21781;BME280;52576;53.614;9.894;2022-10-31T01:27:20;101441.72;;;13.00;100.00
21781;BME280;52576;53.614;9.894;2022-10-31T01:28:23;101448.75;;;13.01;100.00
21781;BME280;52576;53.614;9.894;2022-10-31T01:29:26;101450.63;;;13.01;100.00
21781;BME280;52576;53.614;9.894;2022-10-31T01:30:31;101447.94;;;13.01;100.00
21781;BME280;52576;53.614;9.894;2022-10-31T01:31:35;101450.44;;;13.02;100.00
21781;BME280;52576;53.614;9.894;2022-10-31T01:32:39;101456.81;;;13.01;100.00
21781;BME280;52576;53.614;9.894;2022-10-31T01:33:41;101448.75;;;13.01;100.00
21781;BME280;52576;53.614;9.894;2022-10-31T01:34:44;101448.75;;;13.01;100.00
21781;BME280;52576;53.614;9.894;2022-10-31T01:35:47;101453.28;;;13.01;100.00
21781;BME280;52576;53.614;9.894;2022-10-31T01:36:50;101441.72;;;13.00;100.00
21781;BME280;52576;53.614;9.894;2022-10-31T01:37:53;101450.63;;;13.01;100.00
21781;BME280;52576;53.614;9.894;2022-10-31T01:38:58;101447.94;;;13.01;100.00
21781;BME280;52576;53.614;9.894;2022-10-31T01:40:01;101449.78;;;13.00;100.00
21781;BME280;52576;53.614;9.894;2022-10-31T01:41:04;101444.63;;;12.99;100.00
21781;BME280;52576;53.614;9.894;2022-10-31T01:42:15;101450.81;;;12.99;100.00
21781;BME280;52576;53.614;9.894;2022-10-31T01:43:20;101451.63;;;13.00;100.00
21781;BME280;52576;53.614;9.894;2022-10-31T01:44:52;101458.25;;;12.97;100.00
21781;BME280;52576;53.614;9.894;2022-10-31T01:45:56;101452.03;;;12.97;100.00
21781;BME280;52576;53.614;9.894;2022-10-31T01:47:01;101453.88;;;12.96;100.00
21781;BME280;52576;53.614;9.894;2022-10-31T01:48:12;101453.88;;;12.96;100.00
21781;BME280;52576;53.614;9.894;2022-10-31T01:49:18;101455.75;;;12.96;100.00
21781;BME280;52576;53.614;9.894;2022-10-31T01:50:28;101454.09;;;12.95;100.00
21781;BME280;52576;53.614;9.894;2022-10-31T01:51:35;101454.28;;;12.93;100.00
21781;BME280;52576;53.614;9.894;2022-10-31T01:52:41;101464.03;;;12.94;100.00
21781;BME280;52576;53.614;9.894;2022-10-31T01:53:45;101456.97;;;12.93;100.00
21781;BME280;52576;53.614;9.894;2022-10-31T01:54:52;101460.72;;;12.92;100.00
21781;BME280;52576;53.614;9.894;2022-10-31T01:55:56;101466.06;;;12.92;100.00
21781;BME280;52576;53.614;9.894;2022-10-31T01:57:01;101471.44;;;12.92;100.00
21781;BME280;52576;53.614;9.894;2022-10-31T01:58:07;101466.06;;;12.92;100.00
21781;BME280;52576;53.614;9.894;2022-10-31T01:59:16;101473.28;;;12.92;100.00
21781;BME280;52576;53.614;9.894;2022-10-31T02:00:22;101465.44;;;12.90;100.00
21781;BME280;52576;53.614;9.894;2022-10-31T02:01:27;101467.50;;;12.88;100.00
21781;BME280;52576;53.614;9.894;2022-10-31T02:02:31;101465.25;;;12.92;100.00
21781;BME280;52576;53.614;9.894;2022-10-31T02:03:34;101466.06;;;12.92;100.00
21781;BME280;52576;53.614;9.894;2022-10-31T02:04:38;101471.44;;;12.92;100.00
21781;BME280;52576;53.614;9.894;2022-10-31T02:05:42;101460.72;;;12.92;100.00
21781;BME280;52576;53.614;9.894;2022-10-31T02:06:49;101460.72;;;12.92;100.00
21781;BME280;52576;53.614;9.894;2022-10-31T02:07:55;101471.44;;;12.92;100.00
21781;BME280;52576;53.614;9.894;2022-10-31T02:09:05;101467.72;;;12.93;100.00
21781;BME280;52576;53.614;9.894;2022-10-31T02:10:08;101473.28;;;12.92;100.00
21781;BME280;52576;53.614;9.894;2022-10-31T02:11:12;101471.44;;;12.92;100.00
21781;BME280;52576;53.614;9.894;2022-10-31T02:12:16;101470.59;;;12.92;100.00
21781;BME280;52576;53.614;9.894;2022-10-31T02:13:20;101468.97;;;12.91;100.00
21781;BME280;52576;53.614;9.894;2022-10-31T02:14:26;101469.97;;;12.90;100.00
21781;BME280;52576;53.614;9.894;2022-10-31T02:15:30;101473.50;;;12.90;100.00
21781;BME280;52576;53.614;9.894;2022-10-31T02:16:35;101479.91;;;12.89;100.00
21781;BME280;52576;53.614;9.894;2022-10-31T02:17:37;101480.72;;;12.90;100.00
21781;BME280;52576;53.614;9.894;2022-10-31T02:18:40;101479.91;;;12.89;100.00
21781;BME280;52576;53.614;9.894;2022-10-31T02:19:51;101477.22;;;12.89;100.00
21781;BME280;52576;53.614;9.894;2022-10-31T02:21:00;101479.91;;;12.89;100.00
21781;BME280;52576;53.614;9.894;2022-10-31T02:22:09;101476.38;;;12.89;100.00
21781;BME280;52576;53.614;9.894;2022-10-31T02:23:44;101477.22;;;12.89;100.00
21781;BME280;52576;53.614;9.894;2022-10-31T02:25:07;101479.06;;;12.89;100.00
21781;BME280;52576;53.614;9.894;2022-10-31T02:26:32;101480.13;;;12.88;100.00
21781;BME280;52576;53.614;9.894;2022-10-31T02:27:51;101483.59;;;12.88;100.00
21781;BME280;52576;53.614;9.894;2022-10-31T02:30:38;101483.81;;;12.87;100.00
21781;BME280;52576;53.614;9.894;2022-10-31T02:31:52;101493.72;;;12.86;100.00
21781;BME280;52576;53.614;9.894;2022-10-31T02:33:07;101489.59;;;12.84;100.00
21781;BME280;52576;53.614;9.894;2022-10-31T02:34:19;101493.91;;;12.85;100.00
21781;BME280;52576;53.614;9.894;2022-10-31T02:35:38;101498.47;;;12.84;100.00
21781;BME280;52576;53.614;9.894;2022-10-31T02:36:52;101500.31;;;12.84;100.00
21781;BME280;52576;53.614;9.894;2022-10-31T02:38:02;101497.63;;;12.84;100.00
21781;BME280;52576;53.614;9.894;2022-10-31T02:39:12;101494.53;;;12.80;100.00
21781;BME280;52576;53.614;9.894;2022-10-31T02:40:17;101495.16;;;12.82;100.00
21781;BME280;52576;53.614;9.894;2022-10-31T02:41:47;101491.63;;;12.82;100.00
21781;BME280;52576;53.614;9.894;2022-10-31T02:42:58;101492.69;;;12.81;100.00
21781;BME280;52576;53.614;9.894;2022-10-31T02:44:08;101493.47;;;12.81;100.00
21781;BME280;52576;53.614;9.894;2022-10-31T02:45:19;101497.22;;;12.80;100.00
21781;BME280;52576;53.614;9.894;2022-10-31T02:46:28;101493.69;;;12.80;100.00
21781;BME280;52576;53.614;9.894;2022-10-31T02:47:37;101496.56;;;12.78;100.00
21781;BME280;52576;53.614;9.894;2022-10-31T02:48:43;101484.19;;;12.77;100.00
21781;BME280;52576;53.614;9.894;2022-10-31T02:49:50;101495.75;;;12.78;100.00
21781;BME280;52576;53.614;9.894;2022-10-31T02:50:59;101492.25;;;12.77;100.00
21781;BME280;52576;53.614;9.894;2022-10-31T02:52:13;101489.75;;;12.76;100.00
21781;BME280;52576;53.614;9.894;2022-10-31T02:53:16;101499.47;;;12.77;100.00
21781;BME280;52576;53.614;9.894;2022-10-31T02:54:21;101514.72;;;12.76;100.00
21781;BME280;52576;53.614;9.894;2022-10-31T02:55:46;101502.16;;;12.77;100.00
21781;BME280;52576;53.614;9.894;2022-10-31T02:56:52;101497.63;;;12.77;100.00
21781;BME280;52576;53.614;9.894;2022-10-31T02:58:02;101499.47;;;12.77;100.00
21781;BME280;52576;53.614;9.894;2022-10-31T02:59:06;101499.47;;;12.77;100.00
21781;BME280;52576;53.614;9.894;2022-10-31T03:00:10;101506.47;;;12.78;100.00
21781;BME280;52576;53.614;9.894;2022-10-31T03:01:44;101467.34;;;12.49;100.00
21781;BME280;52576;53.614;9.894;2022-10-31T03:03:00;101506.69;;;12.76;100.00
21781;BME280;52576;53.614;9.894;2022-10-31T03:04:25;101509.56;;;12.75;100.00
21781;BME280;52576;53.614;9.894;2022-10-31T03:05:43;101508.13;;;12.72;100.00
21781;BME280;52576;53.614;9.894;2022-10-31T03:06:55;101515.97;;;12.74;100.00
21781;BME280;52576;53.614;9.894;2022-10-31T03:08:06;101508.13;;;12.72;100.00
21781;BME280;52576;53.614;9.894;2022-10-31T03:09:14;101516.97;;;12.73;100.00
21781;BME280;52576;53.614;9.894;2022-10-31T03:10:27;101515.53;;;12.70;100.00
21781;BME280;52576;53.614;9.894;2022-10-31T03:11:42;101515.53;;;12.70;100.00
21781;BME280;52576;53.614;9.894;2022-10-31T03:12:56;101511.22;;;12.69;100.00
21781;BME280;52576;53.614;9.894;2022-10-31T03:14:09;101515.94;;;12.67;100.00
21781;BME280;52576;53.614;9.894;2022-10-31T03:15:16;101515.94;;;12.67;100.00
21781;BME280;52576;53.614;9.894;2022-10-31T03:16:26;101511.59;;;12.66;100.00
21781;BME280;52576;53.614;9.894;2022-10-31T03:17:36;101514.28;;;12.66;100.00
21781;BME280;52576;53.614;9.894;2022-10-31T03:18:43;101517.16;;;12.64;100.00
21781;BME280;52576;53.614;9.894;2022-10-31T03:19:53;101518.81;;;12.66;100.00
21781;BME280;52576;53.614;9.894;2022-10-31T03:21:04;101517.16;;;12.64;100.00
21781;BME280;52576;53.614;9.894;2022-10-31T03:22:15;101523.34;;;12.65;100.00
21781;BME280;52576;53.614;9.894;2022-10-31T03:23:19;101524.19;;;12.66;100.00
21781;BME280;52576;53.614;9.894;2022-10-31T03:24:28;101522.53;;;12.64;100.00
21781;BME280;52576;53.614;9.894;2022-10-31T03:25:35;101524.41;;;12.64;100.00
21781;BME280;52576;53.614;9.894;2022-10-31T03:26:42;101531.41;;;12.65;100.00
21781;BME280;52576;53.614;9.894;2022-10-31T03:27:47;101527.09;;;12.64;100.00
21781;BME280;52576;53.614;9.894;2022-10-31T03:28:54;101527.09;;;12.64;100.00
21781;BME280;52576;53.614;9.894;2022-10-31T03:30:02;101524.78;;;12.61;100.00
21781;BME280;52576;53.614;9.894;2022-10-31T03:31:12;101528.94;;;12.63;100.00
21781;BME280;52576;53.614;9.894;2022-10-31T03:32:22;101529.13;;;12.62;100.00
21781;BME280;52576;53.614;9.894;2022-10-31T03:33:28;101530.13;;;12.61;100.00
21781;BME280;52576;53.614;9.894;2022-10-31T03:34:36;101529.13;;;12.62;100.00
21781;BME280;52576;53.614;9.894;2022-10-31T03:35:41;101527.47;;;12.61;100.00
21781;BME280;52576;53.614;9.894;2022-10-31T03:36:50;101532.81;;;12.61;100.00
21781;BME280;52576;53.614;9.894;2022-10-31T03:37:54;101540.88;;;12.61;100.00
21781;BME280;52576;53.614;9.894;2022-10-31T03:38:59;101537.59;;;12.59;100.00
21781;BME280;52576;53.614;9.894;2022-10-31T03:40:06;101538.59;;;12.58;100.00
21781;BME280;52576;53.614;9.894;2022-10-31T03:41:14;101542.09;;;12.58;100.00
21781;BME280;52576;53.614;9.894;2022-10-31T03:42:23;101535.91;;;12.58;100.00
21781;BME280;52576;53.614;9.894;2022-10-31T03:43:30;101543.97;;;12.58;100.00
21781;BME280;52576;53.614;9.894;2022-10-31T03:44:34;101536.94;;;12.57;100.00
21781;BME280;52576;53.614;9.894;2022-10-31T03:45:41;101548.69;;;12.56;100.00
21781;BME280;52576;53.614;9.894;2022-10-31T03:46:46;101539.63;;;12.57;100.00
21781;BME280;52576;53.614;9.894;2022-10-31T03:47:50;101543.31;;;12.56;100.00
21781;BME280;52576;53.614;9.894;2022-10-31T03:48:53;101545.00;;;12.57;100.00
21781;BME280;52576;53.614;9.894;2022-10-31T03:49:57;101542.50;;;12.55;100.00
21781;BME280;52576;53.614;9.894;2022-10-31T03:51:04;101540.84;;;12.54;100.00
21781;BME280;52576;53.614;9.894;2022-10-31T03:52:14;101546.00;;;12.56;100.00
21781;BME280;52576;53.614;9.894;2022-10-31T03:53:21;101554.25;;;12.54;100.00
21781;BME280;52576;53.614;9.894;2022-10-31T03:54:30;101557.78;;;12.55;100.00
21781;BME280;52576;53.614;9.894;2022-10-31T03:55:39;101558.81;;;12.54;100.00
21781;BME280;52576;53.614;9.894;2022-10-31T03:56:49;101553.44;;;12.54;100.00
21781;BME280;52576;53.614;9.894;2022-10-31T03:57:57;101559.81;;;12.53;100.00
21781;BME280;52576;53.614;9.894;2022-10-31T03:59:06;101560.66;;;12.53;100.00
21781;BME280;52576;53.614;9.894;2022-10-31T04:00:12;101556.94;;;12.54;100.00
21781;BME280;52576;53.614;9.894;2022-10-31T04:01:20;101554.84;;;12.50;100.00
21781;BME280;52576;53.614;9.894;2022-10-31T04:02:26;101560.84;;;12.52;100.00
21781;BME280;52576;53.614;9.894;2022-10-31T04:03:33;101566.22;;;12.52;100.00
21781;BME280;52576;53.614;9.894;2022-10-31T04:04:37;101558.38;;;12.50;100.00
21781;BME280;52576;53.614;9.894;2022-10-31T04:05:44;101514.47;;;12.24;100.00
21781;BME280;52576;53.614;9.894;2022-10-31T04:06:49;101560.22;;;12.50;100.00
21781;BME280;52576;53.614;9.894;2022-10-31T04:07:55;101559.38;;;12.49;100.00
21781;BME280;52576;53.614;9.894;2022-10-31T04:09:02;101561.25;;;12.49;100.00
21781;BME280;52576;53.614;9.894;2022-10-31T04:10:09;101553.78;;;12.44;100.00
21781;BME280;52576;53.614;9.894;2022-10-31T04:11:13;101572.78;;;12.49;100.00
21781;BME280;52576;53.614;9.894;2022-10-31T04:12:23;101571.16;;;12.48;100.00
21781;BME280;52576;53.614;9.894;2022-10-31T04:13:37;101570.31;;;12.48;100.00
21781;BME280;52576;53.614;9.894;2022-10-31T04:14:48;101567.19;;;12.44;100.00
21781;BME280;52576;53.614;9.894;2022-10-31T04:15:54;101574.03;;;12.47;100.00
21781;BME280;52576;53.614;9.894;2022-10-31T04:17:01;101574.84;;;12.47;100.00
21781;BME280;52576;53.614;9.894;2022-10-31T04:18:10;101571.34;;;12.47;100.00
21781;BME280;52576;53.614;9.894;2022-10-31T04:19:14;101567.00;;;12.46;100.00
21781;BME280;52576;53.614;9.894;2022-10-31T04:20:17;101564.94;;;12.48;100.00
21781;BME280;52576;53.614;9.894;2022-10-31T04:21:28;101565.97;;;12.47;100.00
21781;BME280;52576;53.614;9.894;2022-10-31T04:22:31;101567.63;;;12.48;100.00
21781;BME280;52576;53.614;9.894;2022-10-31T04:23:35;101564.31;;;12.46;100.00
21781;BME280;52576;53.614;9.894;2022-10-31T04:24:51;101569.31;;;12.49;100.00
21781;BME280;52576;53.614;9.894;2022-10-31T04:25:55;101572.00;;;12.49;100.00
21781;BME280;52576;53.614;9.894;2022-10-31T04:26:57;101563.75;;;12.50;100.00
21781;BME280;52576;53.614;9.894;2022-10-31T04:28:00;101570.75;;;12.51;100.00
21781;BME280;52576;53.614;9.894;2022-10-31T04:29:03;101565.19;;;12.53;100.00
21781;BME280;52576;53.614;9.894;2022-10-31T04:30:07;101565.38;;;12.51;100.00
21781;BME280;52576;53.614;9.894;2022-10-31T04:31:14;101576.56;;;12.55;100.00
21781;BME280;52576;53.614;9.894;2022-10-31T04:32:18;101573.69;;;12.56;100.00
21781;BME280;52576;53.614;9.894;2022-10-31T04:33:21;101578.84;;;12.58;100.00
21781;BME280;52576;53.614;9.894;2022-10-31T04:34:24;101573.47;;;12.58;100.00
21781;BME280;52576;53.614;9.894;2022-10-31T04:35:27;101573.28;;;12.59;100.00
21781;BME280;52576;53.614;9.894;2022-10-31T04:36:31;101573.06;;;12.61;100.00
21781;BME280;52576;53.614;9.894;2022-10-31T04:37:34;101574.75;;;12.62;100.00
21781;BME280;52576;53.614;9.894;2022-10-31T04:38:37;101576.41;;;12.63;100.00
21781;BME280;52576;53.614;9.894;2022-10-31T04:39:49;101577.44;;;12.62;100.00
21781;BME280;52576;53.614;9.894;2022-10-31T04:41:09;101579.72;;;12.65;100.00
21781;BME280;52576;53.614;9.894;2022-10-31T04:42:29;101579.72;;;12.65;100.00
21781;BME280;52576;53.614;9.894;2022-10-31T04:43:33;101582.41;;;12.65;100.00
21781;BME280;52576;53.614;9.894;2022-10-31T04:44:36;101585.72;;;12.67;100.00
21781;BME280;52576;53.614;9.894;2022-10-31T04:45:38;101594.41;;;12.69;100.00
21781;BME280;52576;53.614;9.894;2022-10-31T04:46:42;101590.88;;;12.69;100.00
21781;BME280;52576;53.614;9.894;2022-10-31T04:47:45;101588.19;;;12.69;100.00
21781;BME280;52576;53.614;9.894;2022-10-31T04:48:48;101590.06;;;12.68;100.00
21781;BME280;52576;53.614;9.894;2022-10-31T04:49:51;101581.34;;;12.66;100.00
21781;BME280;52576;53.614;9.894;2022-10-31T04:50:58;101586.72;;;12.66;100.00
21781;BME280;52576;53.614;9.894;2022-10-31T04:52:03;101588.41;;;12.67;100.00
21781;BME280;52576;53.614;9.894;2022-10-31T04:53:07;101591.09;;;12.67;100.00
21781;BME280;52576;53.614;9.894;2022-10-31T04:54:17;101583.84;;;12.68;100.00
21781;BME280;52576;53.614;9.894;2022-10-31T04:55:39;101584.25;;;12.64;100.00
21781;BME280;52576;53.614;9.894;2022-10-31T04:56:52;101585.72;;;12.67;100.00
21781;BME280;52576;53.614;9.894;2022-10-31T04:57:57;101584.03;;;12.66;100.00
21781;BME280;52576;53.614;9.894;2022-10-31T04:59:01;101594.56;;;12.68;100.00
21781;BME280;52576;53.614;9.894;2022-10-31T05:00:16;101587.56;;;12.67;100.00
21781;BME280;52576;53.614;9.894;2022-10-31T05:01:23;101594.78;;;12.66;100.00
21781;BME280;52576;53.614;9.894;2022-10-31T05:02:25;101592.94;;;12.67;100.00
21781;BME280;52576;53.614;9.894;2022-10-31T05:03:31;101585.09;;;12.65;100.00
21781;BME280;52576;53.614;9.894;2022-10-31T05:04:33;101596.47;;;12.67;100.00
21781;BME280;52576;53.614;9.894;2022-10-31T05:05:37;101592.94;;;12.67;100.00
21781;BME280;52576;53.614;9.894;2022-10-31T05:06:39;101590.25;;;12.67;100.00
21781;BME280;52576;53.614;9.894;2022-10-31T05:07:45;101586.72;;;12.66;100.00
21781;BME280;52576;53.614;9.894;2022-10-31T05:08:48;101588.59;;;12.66;100.00
21781;BME280;52576;53.614;9.894;2022-10-31T05:09:51;101589.41;;;12.66;100.00
21781;BME280;52576;53.614;9.894;2022-10-31T05:10:54;101587.56;;;12.67;100.00
21781;BME280;52576;53.614;9.894;2022-10-31T05:12:04;101588.59;;;12.66;100.00
21781;BME280;52576;53.614;9.894;2022-10-31T05:13:30;101588.59;;;12.66;100.00
21781;BME280;52576;53.614;9.894;2022-10-31T05:14:48;101591.50;;;12.64;100.00
21781;BME280;52576;53.614;9.894;2022-10-31T05:16:08;101587.56;;;12.67;100.00
21781;BME280;52576;53.614;9.894;2022-10-31T05:17:23;101595.63;;;12.67;100.00
21781;BME280;52576;53.614;9.894;2022-10-31T05:19:01;101585.72;;;12.67;100.00
21781;BME280;52576;53.614;9.894;2022-10-31T05:20:26;101591.72;;;12.69;100.00
21781;BME280;52576;53.614;9.894;2022-10-31T05:21:43;101600.59;;;12.70;100.00
21781;BME280;52576;53.614;9.894;2022-10-31T05:22:50;101591.53;;;12.71;100.00
21781;BME280;52576;53.614;9.894;2022-10-31T05:23:52;101588.84;;;12.71;100.00
21781;BME280;52576;53.614;9.894;2022-10-31T05:24:57;101600.19;;;12.73;100.00
21781;BME280;52576;53.614;9.894;2022-10-31T05:25:59;101594.81;;;12.73;100.00
21781;BME280;52576;53.614;9.894;2022-10-31T05:27:02;101595.66;;;12.73;100.00
21781;BME280;52576;53.614;9.894;2022-10-31T05:28:05;101584.91;;;12.73;100.00
21781;BME280;52576;53.614;9.894;2022-10-31T05:29:08;101596.50;;;12.74;100.00
21781;BME280;52576;53.614;9.894;2022-10-31T05:30:13;101598.97;;;12.75;100.00
21781;BME280;52576;53.614;9.894;2022-10-31T05:31:16;101596.28;;;12.75;100.00
21781;BME280;52576;53.614;9.894;2022-10-31T05:32:19;101589.88;;;12.76;100.00
21781;BME280;52576;53.614;9.894;2022-10-31T05:33:51;101596.09;;;12.77;100.00
21781;BME280;52576;53.614;9.894;2022-10-31T05:35:13;101589.06;;;12.76;100.00
21781;BME280;52576;53.614;9.894;2022-10-31T05:36:39;101590.72;;;12.77;100.00
21781;BME280;52576;53.614;9.894;2022-10-31T05:38:01;101593.22;;;12.78;100.00
21781;BME280;52576;53.614;9.894;2022-10-31T05:39:05;101595.06;;;12.78;100.00
21781;BME280;52576;53.614;9.894;2022-10-31T05:40:16;101600.25;;;12.79;100.00
21781;BME280;52576;53.614;9.894;2022-10-31T05:41:20;101590.53;;;12.78;100.00
21781;BME280;52576;53.614;9.894;2022-10-31T05:42:22;101598.78;;;12.77;100.00
21781;BME280;52576;53.614;9.894;2022-10-31T05:43:26;101594.03;;;12.79;100.00
21781;BME280;52576;53.614;9.894;2022-10-31T05:44:28;101595.69;;;12.80;100.00
21781;BME280;52576;53.614;9.894;2022-10-31T05:45:42;101587.63;;;12.80;100.00
21781;BME280;52576;53.614;9.894;2022-10-31T05:47:01;101581.47;;;12.79;100.00
21781;BME280;52576;53.614;9.894;2022-10-31T05:48:30;101583.09;;;12.80;100.00